Darstellungsparameter: Aktuell verwendete Einstellungen:
Skalierung der Graphiken ... ?
xyx+y,   Skalierungsfaktor:      Skalierung: Modus: x, Faktor: 1
Darstellungszeitraum ... ?
Vom - - bis: - -   Zeitraum: 24.10.2021 - 25.10.2021
Min/Max/Avg-Anzeige ... ?
Zeige MMA aktuell
Zeige MMA Monat
Zeige MMA alles
Zeige --A aktuell
Zeige --A Monat
Zeige --A alles
Keine MMA-Anzeige
MMA:
Average (ber die Originaldaten)
MMA-Basis: 24.10.2021 - 25.10.2021
Quicknavigation für Darstellung... ?
Tage:      1T, 2T, 3T, 5T -1T -2T -3T -5T +1T +2T +3T +5T
Wochen: 1W, 2W, 3W -1W -2W -3W +1W +2W +3W
Monate: 1M, 3M, 6M -1M -3M -6M +1M +3M +6M
Jahre:    1J, 3J, 5J, 10J -1J -3J -5J -10J +1J +3J +5J +10J
Nutze für die Darstellung ... ?
Originaldaten oder Mittelwerte auf ...
Stundenbasis Tagesbasis Wochenbasis
Monatsbasis Jahresbasis      Datenbasis: Original-Daten
Darstellen als:
Statistik (Auto) Statistik J:M      Darstellung:
Zur Graphik,    zurück zur Übersicht aller Sensoren.
 
Tabellarische Datenbersicht: ?
 
Sensor: Nr:Datum:Temp:Abs-Feuchte:Windchill:Wind:
Aussen-T/F 1 24-10-2021 00:00:00 4.1 C 6.08 g/m*3 4.1 C 0 km/h
2 24-10-2021 00:05:00 4.1 C 6.02 g/m*3 4.1 C 0 km/h
3 24-10-2021 00:10:00 4 C 5.98 g/m*3 4 C 0 km/h
4 24-10-2021 00:15:00 3.9 C 6 g/m*3 3.9 C 0 km/h
5 24-10-2021 00:20:00 3.9 C 6 g/m*3 3.9 C 0 km/h
6 24-10-2021 00:25:00 3.8 C 5.96 g/m*3 3.8 C 0 km/h
7 24-10-2021 00:30:00 3.8 C 5.96 g/m*3 3.8 C 0 km/h
8 24-10-2021 00:35:00 3.8 C 5.96 g/m*3 3.8 C 0 km/h
9 24-10-2021 00:40:00 3.8 C 5.96 g/m*3 3.8 C 0 km/h
10 24-10-2021 00:45:00 3.7 C 5.92 g/m*3 3.7 C 0 km/h
11 24-10-2021 00:50:00 3.7 C 5.92 g/m*3 3.7 C 0 km/h
12 24-10-2021 00:55:00 3.6 C 5.88 g/m*3 3.6 C 0 km/h
13 24-10-2021 01:00:00 3.5 C 5.84 g/m*3 3.5 C 0 km/h
14 24-10-2021 01:05:00 3.5 C 5.84 g/m*3 3.5 C 0 km/h
15 24-10-2021 01:10:00 3.4 C 5.8 g/m*3 3.4 C 0 km/h
16 24-10-2021 01:15:00 3.4 C 5.8 g/m*3 3.4 C 0 km/h
17 24-10-2021 01:20:00 3.3 C 5.76 g/m*3 3.3 C 0 km/h
18 24-10-2021 01:25:00 3.3 C 5.76 g/m*3 3.3 C 0 km/h
19 24-10-2021 01:30:00 3.3 C 5.76 g/m*3 3.3 C 0 km/h
20 24-10-2021 01:35:00 3.2 C 5.72 g/m*3 3.2 C 0 km/h
21 24-10-2021 01:40:00 3.2 C 5.72 g/m*3 3.2 C 0 km/h
22 24-10-2021 01:45:00 3.3 C 5.76 g/m*3 3.3 C 0 km/h
23 24-10-2021 01:50:00 3.4 C 5.8 g/m*3 3.4 C 0 km/h
24 24-10-2021 01:55:00 3.5 C 5.9 g/m*3 3.5 C 0 km/h
25 24-10-2021 02:00:00 3.7 C 5.98 g/m*3 3.7 C 0 km/h
Sensor: Nr:Datum:Temp:Abs-Feuchte:Windchill:Wind:
Aussen-T/F 26 24-10-2021 02:05:00 3.8 C 6.02 g/m*3 3.8 C 0 km/h
27 24-10-2021 02:10:00 3.9 C 6.06 g/m*3 3.9 C 0 km/h
28 24-10-2021 02:15:00 4 C 6.1 g/m*3 4 C 0 km/h
29 24-10-2021 02:20:00 4.1 C 6.14 g/m*3 4.1 C 0 km/h
30 24-10-2021 02:25:00 4.2 C 6.19 g/m*3 4.2 C 0 km/h
31 24-10-2021 02:30:00 4.3 C 6.23 g/m*3 4.3 C 0 km/h
32 24-10-2021 02:35:00 4.4 C 6.27 g/m*3 4.4 C 0 km/h
33 24-10-2021 02:40:00 4.5 C 6.31 g/m*3 4.5 C 0 km/h
34 24-10-2021 02:45:00 4.6 C 6.35 g/m*3 4.6 C 0 km/h
35 24-10-2021 02:50:00 4.6 C 6.35 g/m*3 4.6 C 0 km/h
36 24-10-2021 02:55:00 4.7 C 6.39 g/m*3 4.7 C 0 km/h
37 24-10-2021 03:00:00 4.6 C 6.35 g/m*3 4.6 C 0 km/h
38 24-10-2021 03:05:00 4.6 C 6.35 g/m*3 4.6 C 0 km/h
39 24-10-2021 03:10:00 4.6 C 6.35 g/m*3 4.6 C 0 km/h
40 24-10-2021 03:15:00 4.6 C 6.35 g/m*3 4.6 C 0 km/h
41 24-10-2021 03:20:00 4.6 C 6.35 g/m*3 4.6 C 0 km/h
42 24-10-2021 03:25:00 4.5 C 6.31 g/m*3 4.5 C 1.6 km/h
43 24-10-2021 03:30:00 4.4 C 6.27 g/m*3 4.4 C 0 km/h
44 24-10-2021 03:35:00 4.4 C 6.27 g/m*3 4.4 C 0 km/h
45 24-10-2021 03:40:00 4.4 C 6.27 g/m*3 4.4 C 0 km/h
46 24-10-2021 03:45:00 4.4 C 6.27 g/m*3 4.4 C 0 km/h
47 24-10-2021 03:50:00 4.4 C 6.27 g/m*3 4.4 C 0 km/h
48 24-10-2021 03:55:00 4.3 C 6.23 g/m*3 4.3 C 0 km/h
49 24-10-2021 04:00:00 4.3 C 6.23 g/m*3 4.3 C 0 km/h
50 24-10-2021 04:05:00 4.3 C 6.23 g/m*3 4.3 C 0 km/h
Sensor: Nr:Datum:Temp:Abs-Feuchte:Windchill:Wind:
Aussen-T/F 51 24-10-2021 04:10:00 4.2 C 6.19 g/m*3 4.2 C 0 km/h
52 24-10-2021 04:15:00 4.2 C 6.19 g/m*3 4.2 C 0 km/h
53 24-10-2021 04:20:00 4.2 C 6.19 g/m*3 4.2 C 0 km/h
54 24-10-2021 04:25:00 4.2 C 6.19 g/m*3 4.2 C 0 km/h
55 24-10-2021 04:30:00 4.2 C 6.19 g/m*3 4.2 C 3.2 km/h
56 24-10-2021 04:35:00 4.2 C 6.19 g/m*3 4.2 C 0 km/h
57 24-10-2021 04:40:00 4.1 C 6.14 g/m*3 4.1 C 1.6 km/h
58 24-10-2021 04:45:00 4.1 C 6.14 g/m*3 4.1 C 0 km/h
59 24-10-2021 04:50:00 4 C 6.1 g/m*3 4 C 0 km/h
60 24-10-2021 04:55:00 4 C 6.1 g/m*3 4 C 0 km/h
61 24-10-2021 05:00:00 4 C 6.1 g/m*3 4 C 1.6 km/h
62 24-10-2021 05:05:00 4 C 6.1 g/m*3 4 C 0 km/h
63 24-10-2021 05:10:00 3.9 C 6.06 g/m*3 3.9 C 0 km/h
64 24-10-2021 05:15:00 3.9 C 6.06 g/m*3 3.9 C 1.6 km/h
65 24-10-2021 05:20:00 3.8 C 6.02 g/m*3 3.8 C 1.6 km/h
66 24-10-2021 05:25:00 3.8 C 6.02 g/m*3 3.8 C 1.6 km/h
67 24-10-2021 05:30:00 3.7 C 5.98 g/m*3 3.7 C 0 km/h
68 24-10-2021 05:35:00 3.6 C 5.94 g/m*3 3.6 C 1.6 km/h
69 24-10-2021 05:40:00 3.5 C 5.9 g/m*3 3.5 C 1.6 km/h
70 24-10-2021 05:45:00 3.4 C 5.86 g/m*3 3.4 C 0 km/h
71 24-10-2021 05:50:00 3.3 C 5.82 g/m*3 3.3 C 0 km/h
72 24-10-2021 05:55:00 3.3 C 5.82 g/m*3 3.3 C 0 km/h
73 24-10-2021 06:00:00 3.3 C 5.82 g/m*3 3.3 C 0 km/h
74 24-10-2021 06:05:00 3.2 C 5.79 g/m*3 3.2 C 3.2 km/h
75 24-10-2021 06:10:00 3.2 C 5.79 g/m*3 3.2 C 1.6 km/h
Sensor: Nr:Datum:Temp:Abs-Feuchte:Windchill:Wind:
Aussen-T/F 76 24-10-2021 06:15:00 3.1 C 5.75 g/m*3 3.1 C 0 km/h
77 24-10-2021 06:20:00 3.1 C 5.75 g/m*3 3.1 C 0 km/h
78 24-10-2021 06:25:00 3 C 5.71 g/m*3 3 C 0 km/h
79 24-10-2021 06:30:00 3 C 5.71 g/m*3 3 C 0 km/h
80 24-10-2021 06:35:00 2.9 C 5.67 g/m*3 2.9 C 1.6 km/h
81 24-10-2021 06:40:00 2.9 C 5.67 g/m*3 2.9 C 0 km/h
82 24-10-2021 06:45:00 2.8 C 5.63 g/m*3 2.8 C 0 km/h
83 24-10-2021 06:50:00 2.8 C 5.63 g/m*3 2.8 C 0 km/h
84 24-10-2021 06:55:00 2.7 C 5.59 g/m*3 2.7 C 0 km/h
85 24-10-2021 07:00:00 2.7 C 5.59 g/m*3 2.7 C 0 km/h
86 24-10-2021 07:05:00 2.7 C 5.59 g/m*3 2.7 C 0 km/h
87 24-10-2021 07:10:00 2.7 C 5.59 g/m*3 2.7 C 0 km/h
88 24-10-2021 07:15:00 2.7 C 5.59 g/m*3 2.7 C 0 km/h
89 24-10-2021 07:20:00 2.6 C 5.56 g/m*3 2.6 C 0 km/h
90 24-10-2021 07:25:00 2.6 C 5.56 g/m*3 2.6 C 0 km/h
91 24-10-2021 07:30:00 2.6 C 5.56 g/m*3 2.6 C 0 km/h
92 24-10-2021 07:35:00 2.5 C 5.52 g/m*3 2.5 C 0 km/h
93 24-10-2021 07:40:00 2.4 C 5.48 g/m*3 2.4 C 0 km/h
94 24-10-2021 07:45:00 2.4 C 5.48 g/m*3 2.4 C 0 km/h
95 24-10-2021 07:50:00 2.4 C 5.48 g/m*3 2.4 C 0 km/h
96 24-10-2021 07:55:00 2.4 C 5.48 g/m*3 2.4 C 0 km/h
97 24-10-2021 08:00:00 2.4 C 5.48 g/m*3 2.4 C 0 km/h
98 24-10-2021 08:05:00 2.4 C 5.48 g/m*3 2.4 C 0 km/h
99 24-10-2021 08:10:00 2.4 C 5.48 g/m*3 2.4 C 0 km/h
100 24-10-2021 08:15:00 2.3 C 5.44 g/m*3 2.3 C 0 km/h
Sensor: Nr:Datum:Temp:Abs-Feuchte:Windchill:Wind:
Aussen-T/F 101 24-10-2021 08:20:00 2.2 C 5.41 g/m*3 2.2 C 0 km/h
102 24-10-2021 08:25:00 2.1 C 5.37 g/m*3 2.1 C 0 km/h
103 24-10-2021 08:30:00 2 C 5.33 g/m*3 2 C 0 km/h
104 24-10-2021 08:35:00 1.9 C 5.3 g/m*3 1.9 C 0 km/h
105 24-10-2021 08:40:00 1.8 C 5.26 g/m*3 1.8 C 0 km/h
106 24-10-2021 08:45:00 1.8 C 5.26 g/m*3 1.8 C 0 km/h
107 24-10-2021 08:50:00 1.7 C 5.23 g/m*3 1.7 C 0 km/h
108 24-10-2021 08:55:00 1.6 C 5.19 g/m*3 1.6 C 0 km/h
109 24-10-2021 09:00:00 1.6 C 5.19 g/m*3 1.6 C 0 km/h
110 24-10-2021 09:05:00 1.5 C 5.16 g/m*3 1.5 C 0 km/h
111 24-10-2021 09:10:00 1.5 C 5.16 g/m*3 1.5 C 0 km/h
112 24-10-2021 09:15:00 1.5 C 5.16 g/m*3 1.5 C 0 km/h
113 24-10-2021 09:20:00 1.6 C 5.19 g/m*3 1.6 C 0 km/h
114 24-10-2021 09:25:00 1.6 C 5.19 g/m*3 1.6 C 0 km/h
115 24-10-2021 09:30:00 1.6 C 5.19 g/m*3 1.6 C 0 km/h
116 24-10-2021 09:35:00 1.6 C 5.19 g/m*3 1.6 C 0 km/h
117 24-10-2021 09:40:00 1.6 C 5.19 g/m*3 1.6 C 0 km/h
118 24-10-2021 09:45:00 1.6 C 5.19 g/m*3 1.6 C 0 km/h
119 24-10-2021 09:50:00 1.7 C 5.23 g/m*3 1.7 C 0 km/h
120 24-10-2021 09:55:00 1.7 C 5.23 g/m*3 1.7 C 0 km/h
121 24-10-2021 10:00:00 1.7 C 5.23 g/m*3 1.7 C 0 km/h
122 24-10-2021 10:05:00 1.7 C 5.23 g/m*3 1.7 C 0 km/h
123 24-10-2021 10:10:00 1.8 C 5.26 g/m*3 1.8 C 0 km/h
124 24-10-2021 10:15:00 1.8 C 5.26 g/m*3 1.8 C 0 km/h
125 24-10-2021 10:20:00 1.8 C 5.26 g/m*3 1.8 C 0 km/h
Sensor: Nr:Datum:Temp:Abs-Feuchte:Windchill:Wind:
Aussen-T/F 126 24-10-2021 10:25:00 1.8 C 5.32 g/m*3 1.8 C 0 km/h
127 24-10-2021 10:30:00 1.9 C 5.35 g/m*3 1.9 C 0 km/h
128 24-10-2021 10:35:00 2 C 5.39 g/m*3 2 C 0 km/h
129 24-10-2021 10:40:00 2.2 C 5.46 g/m*3 2.2 C 0 km/h
130 24-10-2021 10:45:00 2.3 C 5.5 g/m*3 2.3 C 0 km/h
131 24-10-2021 10:50:00 2.5 C 5.58 g/m*3 2.5 C 0 km/h
132 24-10-2021 10:55:00 2.7 C 5.65 g/m*3 2.7 C 0 km/h
133 24-10-2021 11:00:00 2.8 C 5.69 g/m*3 2.8 C 0 km/h
134 24-10-2021 11:05:00 2.9 C 5.73 g/m*3 2.9 C 0 km/h
135 24-10-2021 11:10:00 3 C 5.77 g/m*3 3 C 0 km/h
136 24-10-2021 11:15:00 3.1 C 5.81 g/m*3 3.1 C 0 km/h
137 24-10-2021 11:20:00 3.1 C 5.81 g/m*3 3.1 C 0 km/h
138 24-10-2021 11:25:00 3.2 C 5.85 g/m*3 3.2 C 0 km/h
139 24-10-2021 11:30:00 3.3 C 5.88 g/m*3 3.3 C 0 km/h
140 24-10-2021 11:35:00 3.5 C 5.96 g/m*3 3.5 C 0 km/h
141 24-10-2021 11:40:00 3.7 C 6.04 g/m*3 3.7 C 1.6 km/h
142 24-10-2021 11:45:00 3.8 C 6.09 g/m*3 3.8 C 0 km/h
143 24-10-2021 11:50:00 4.1 C 6.21 g/m*3 4.1 C 0 km/h
144 24-10-2021 11:55:00 4.3 C 6.29 g/m*3 4.3 C 0 km/h
145 24-10-2021 12:00:00 4.4 C 6.33 g/m*3 4.4 C 0 km/h
146 24-10-2021 12:05:00 4.6 C 6.42 g/m*3 4.6 C 1.6 km/h
147 24-10-2021 12:10:00 4.7 C 6.46 g/m*3 4.7 C 0 km/h
148 24-10-2021 12:15:00 4.9 C 6.55 g/m*3 4.9 C 0 km/h
149 24-10-2021 12:20:00 5.1 C 6.63 g/m*3 5.1 C 1.6 km/h
150 24-10-2021 12:25:00 5.3 C 6.72 g/m*3 5.3 C 0 km/h
Sensor: Nr:Datum:Temp:Abs-Feuchte:Windchill:Wind:
Aussen-T/F 151 24-10-2021 12:30:00 5.5 C 6.81 g/m*3 5.5 C 1.6 km/h
152 24-10-2021 12:35:00 5.6 C 6.86 g/m*3 5.6 C 0 km/h
153 24-10-2021 12:40:00 5.8 C 6.95 g/m*3 5.8 C 1.6 km/h
154 24-10-2021 12:45:00 6.1 C 7.09 g/m*3 6.1 C 1.6 km/h
155 24-10-2021 12:50:00 6.4 C 7.3 g/m*3 6.4 C 1.6 km/h
156 24-10-2021 12:55:00 6.6 C 7.4 g/m*3 6.6 C 0 km/h
157 24-10-2021 13:00:00 6.7 C 7.45 g/m*3 6.7 C 0 km/h
158 24-10-2021 13:05:00 6.9 C 7.54 g/m*3 5.79 C 6.4 km/h
159 24-10-2021 13:10:00 7.1 C 7.64 g/m*3 7.1 C 4.8 km/h
160 24-10-2021 13:15:00 7.3 C 7.74 g/m*3 7.3 C 1.6 km/h
161 24-10-2021 13:20:00 7.4 C 7.79 g/m*3 7.4 C 1.6 km/h
162 24-10-2021 13:25:00 7.6 C 7.9 g/m*3 7.6 C 3.2 km/h
163 24-10-2021 13:30:00 7.7 C 7.95 g/m*3 7.7 C 1.6 km/h
164 24-10-2021 13:35:00 7.9 C 8.05 g/m*3 7.9 C 1.6 km/h
165 24-10-2021 13:40:00 8 C 8.1 g/m*3 8 C 4.8 km/h
166 24-10-2021 13:45:00 8.2 C 8.21 g/m*3 8.2 C 3.2 km/h
167 24-10-2021 13:50:00 8.3 C 8.26 g/m*3 8.3 C 1.6 km/h
168 24-10-2021 13:55:00 8.4 C 8.31 g/m*3 8.4 C 1.6 km/h
169 24-10-2021 14:00:00 8.5 C 8.37 g/m*3 8.5 C 1.6 km/h
170 24-10-2021 14:05:00 8.6 C 8.42 g/m*3 7.75 C 6.4 km/h
171 24-10-2021 14:10:00 8.6 C 8.42 g/m*3 8.6 C 4.8 km/h
172 24-10-2021 14:15:00 8.7 C 8.48 g/m*3 7.87 C 6.4 km/h
173 24-10-2021 14:20:00 8.8 C 8.44 g/m*3 8.8 C 1.6 km/h
174 24-10-2021 14:25:00 8.9 C 8.58 g/m*3 8.9 C 3.2 km/h
175 24-10-2021 14:30:00 9.1 C 8.61 g/m*3 9.1 C 1.6 km/h
Sensor: Nr:Datum:Temp:Abs-Feuchte:Windchill:Wind:
Aussen-T/F 176 24-10-2021 14:35:00 9.2 C 8.66 g/m*3 8.05 C 8.1 km/h
177 24-10-2021 14:40:00 9.1 C 8.61 g/m*3 7.93 C 8.1 km/h
178 24-10-2021 14:45:00 9.2 C 8.57 g/m*3 9.2 C 1.6 km/h
179 24-10-2021 14:50:00 9.4 C 8.68 g/m*3 9.4 C 0 km/h
180 24-10-2021 14:55:00 9.6 C 8.7 g/m*3 9.6 C 4.8 km/h
181 24-10-2021 15:00:00 9.7 C 8.67 g/m*3 9.7 C 3.2 km/h
182 24-10-2021 15:05:00 9.7 C 8.57 g/m*3 9.7 C 4.8 km/h
183 24-10-2021 15:10:00 9.8 C 8.54 g/m*3 9.14 C 6.4 km/h
184 24-10-2021 15:15:00 10.1 C 8.61 g/m*3 10.1 C 3.2 km/h
185 24-10-2021 15:20:00 10.3 C 8.71 g/m*3 10.3 C 1.6 km/h
186 24-10-2021 15:25:00 10.4 C 8.67 g/m*3 10.4 C 0 km/h
187 24-10-2021 15:30:00 10.6 C 8.39 g/m*3 10.06 C 6.4 km/h
188 24-10-2021 15:35:00 10.8 C 8.2 g/m*3 9.93 C 8.1 km/h
189 24-10-2021 15:40:00 11.2 C 8.51 g/m*3 11.2 C 3.2 km/h
190 24-10-2021 15:45:00 11.3 C 8.67 g/m*3 11.3 C 6.4 km/h
191 24-10-2021 15:50:00 11.5 C 8.16 g/m*3 11.5 C 8.1 km/h
192 24-10-2021 15:55:00 11.7 C 8.47 g/m*3 11.7 C 4.8 km/h
193 24-10-2021 16:00:00 11.9 C 8.68 g/m*3 11.9 C 1.6 km/h
194 24-10-2021 16:05:00 12.1 C 8.47 g/m*3 12.1 C 4.8 km/h
195 24-10-2021 16:10:00 12.3 C 8.14 g/m*3 12.3 C 4.8 km/h
196 24-10-2021 16:15:00 12.6 C 8.85 g/m*3 12.6 C 0 km/h
197 24-10-2021 16:20:00 12.7 C 8.68 g/m*3 12.7 C 1.6 km/h
198 24-10-2021 16:25:00 12.6 C 8.52 g/m*3 12.6 C 8.1 km/h
199 24-10-2021 16:30:00 12.6 C 8.52 g/m*3 12.6 C 4.8 km/h
200 24-10-2021 16:35:00 12.7 C 8.79 g/m*3 12.7 C 3.2 km/h
Sensor: Nr:Datum:Temp:Abs-Feuchte:Windchill:Wind:
Aussen-T/F 201 24-10-2021 16:40:00 12.7 C 8.68 g/m*3 12.7 C 1.6 km/h
202 24-10-2021 16:45:00 12.6 C 8.74 g/m*3 12.6 C 1.6 km/h
203 24-10-2021 16:50:00 12.4 C 8.41 g/m*3 12.4 C 4.8 km/h
204 24-10-2021 16:55:00 12.4 C 8.63 g/m*3 12.4 C 0 km/h
205 24-10-2021 17:00:00 12.2 C 8.63 g/m*3 12.2 C 0 km/h
206 24-10-2021 17:05:00 12.1 C 8.69 g/m*3 12.1 C 1.6 km/h
207 24-10-2021 17:10:00 11.9 C 8.58 g/m*3 11.9 C 1.6 km/h
208 24-10-2021 17:15:00 11.8 C 8.53 g/m*3 11.8 C 6.4 km/h
209 24-10-2021 17:20:00 11.6 C 8.52 g/m*3 11.6 C 0 km/h
210 24-10-2021 17:25:00 11.4 C 8.52 g/m*3 11.4 C 3.2 km/h
211 24-10-2021 17:30:00 11.3 C 8.47 g/m*3 11.3 C 3.2 km/h
212 24-10-2021 17:35:00 11.1 C 8.36 g/m*3 11.1 C 0 km/h
213 24-10-2021 17:40:00 11 C 8.41 g/m*3 11 C 0 km/h
214 24-10-2021 17:45:00 10.9 C 8.36 g/m*3 10.9 C 0 km/h
215 24-10-2021 17:50:00 10.9 C 8.36 g/m*3 10.9 C 0 km/h
216 24-10-2021 17:55:00 10.8 C 8.3 g/m*3 10.8 C 0 km/h
217 24-10-2021 18:00:00 10.6 C 8.2 g/m*3 10.6 C 0 km/h
218 24-10-2021 18:05:00 10.4 C 8.1 g/m*3 10.4 C 0 km/h
219 24-10-2021 18:10:00 10.2 C 7.99 g/m*3 10.2 C 4.8 km/h
220 24-10-2021 18:15:00 9.8 C 7.79 g/m*3 9.8 C 0 km/h
221 24-10-2021 18:20:00 9.4 C 7.69 g/m*3 9.4 C 0 km/h
222 24-10-2021 18:25:00 9.1 C 7.54 g/m*3 9.1 C 0 km/h
223 24-10-2021 18:30:00 8.7 C 7.44 g/m*3 8.7 C 0 km/h
224 24-10-2021 18:35:00 8.3 C 7.33 g/m*3 8.3 C 0 km/h
225 24-10-2021 18:40:00 8.1 C 7.24 g/m*3 8.1 C 0 km/h
Sensor: Nr:Datum:Temp:Abs-Feuchte:Windchill:Wind:
Aussen-T/F 226 24-10-2021 18:45:00 7.8 C 7.18 g/m*3 7.8 C 0 km/h
227 24-10-2021 18:50:00 7.6 C 7.17 g/m*3 7.6 C 3.2 km/h
228 24-10-2021 18:55:00 7.4 C 7.08 g/m*3 7.4 C 1.6 km/h
229 24-10-2021 19:00:00 7.2 C 7.06 g/m*3 7.2 C 3.2 km/h
230 24-10-2021 19:05:00 7.1 C 7.02 g/m*3 7.1 C 3.2 km/h
231 24-10-2021 19:10:00 6.9 C 7.01 g/m*3 6.9 C 3.2 km/h
232 24-10-2021 19:15:00 6.8 C 6.96 g/m*3 6.8 C 1.6 km/h
233 24-10-2021 19:20:00 6.7 C 6.91 g/m*3 6.7 C 1.6 km/h
234 24-10-2021 19:25:00 6.6 C 6.95 g/m*3 6.6 C 1.6 km/h
235 24-10-2021 19:30:00 6.6 C 6.95 g/m*3 6.6 C 3.2 km/h
236 24-10-2021 19:35:00 6.4 C 6.85 g/m*3 6.4 C 4.8 km/h
237 24-10-2021 19:40:00 6.4 C 6.85 g/m*3 6.4 C 1.6 km/h
238 24-10-2021 19:45:00 6.4 C 6.85 g/m*3 6.4 C 4.8 km/h
239 24-10-2021 19:50:00 6.3 C 6.88 g/m*3 6.3 C 1.6 km/h
240 24-10-2021 19:55:00 6.2 C 6.84 g/m*3 6.2 C 4.8 km/h
241 24-10-2021 20:00:00 6.2 C 6.84 g/m*3 6.2 C 1.6 km/h
242 24-10-2021 20:05:00 6.2 C 6.91 g/m*3 6.2 C 0 km/h
243 24-10-2021 20:10:00 6.2 C 6.91 g/m*3 6.2 C 1.6 km/h
244 24-10-2021 20:15:00 6.2 C 6.91 g/m*3 6.2 C 4.8 km/h
245 24-10-2021 20:20:00 6.2 C 6.91 g/m*3 6.2 C 0 km/h
246 24-10-2021 20:25:00 6.2 C 6.91 g/m*3 6.2 C 1.6 km/h
247 24-10-2021 20:30:00 6.1 C 6.87 g/m*3 6.1 C 1.6 km/h
248 24-10-2021 20:35:00 6.2 C 6.91 g/m*3 6.2 C 4.8 km/h
249 24-10-2021 20:40:00 6.2 C 6.91 g/m*3 6.2 C 1.6 km/h
250 24-10-2021 20:45:00 6.2 C 6.91 g/m*3 6.2 C 3.2 km/h
Sensor: Nr:Datum:Temp:Abs-Feuchte:Windchill:Wind:
Aussen-T/F 251 24-10-2021 20:50:00 6.2 C 6.91 g/m*3 6.2 C 0 km/h
252 24-10-2021 20:55:00 6.2 C 6.91 g/m*3 6.2 C 1.6 km/h
253 24-10-2021 21:00:00 6.1 C 6.87 g/m*3 6.1 C 3.2 km/h
254 24-10-2021 21:05:00 6.1 C 6.87 g/m*3 6.1 C 3.2 km/h
255 24-10-2021 21:10:00 6.1 C 6.87 g/m*3 6.1 C 1.6 km/h
256 24-10-2021 21:15:00 6.1 C 6.94 g/m*3 6.1 C 1.6 km/h
257 24-10-2021 21:20:00 6.1 C 6.87 g/m*3 6.1 C 1.6 km/h
258 24-10-2021 21:25:00 5.9 C 6.78 g/m*3 5.9 C 1.6 km/h
259 24-10-2021 21:30:00 5.8 C 6.73 g/m*3 5.8 C 3.2 km/h
260 24-10-2021 21:35:00 5.7 C 6.69 g/m*3 5.7 C 0 km/h
261 24-10-2021 21:40:00 5.6 C 6.65 g/m*3 5.6 C 0 km/h
262 24-10-2021 21:45:00 5.4 C 6.56 g/m*3 5.4 C 0 km/h
263 24-10-2021 21:50:00 5.4 C 6.56 g/m*3 5.4 C 0 km/h
264 24-10-2021 21:55:00 5.3 C 6.52 g/m*3 5.3 C 0 km/h
265 24-10-2021 22:00:00 5.2 C 6.47 g/m*3 5.2 C 0 km/h
266 24-10-2021 22:05:00 5.1 C 6.43 g/m*3 5.1 C 0 km/h
267 24-10-2021 22:10:00 4.9 C 6.35 g/m*3 4.9 C 0 km/h
268 24-10-2021 22:15:00 4.9 C 6.35 g/m*3 4.9 C 0 km/h
269 24-10-2021 22:20:00 4.9 C 6.35 g/m*3 4.9 C 0 km/h
270 24-10-2021 22:25:00 4.8 C 6.3 g/m*3 4.8 C 0 km/h
271 24-10-2021 22:30:00 4.7 C 6.26 g/m*3 4.7 C 0 km/h
272 24-10-2021 22:35:00 4.6 C 6.22 g/m*3 4.6 C 0 km/h
273 24-10-2021 22:40:00 4.6 C 6.22 g/m*3 4.6 C 0 km/h
274 24-10-2021 22:45:00 4.4 C 6.14 g/m*3 4.4 C 0 km/h
275 24-10-2021 22:50:00 4.3 C 6.1 g/m*3 4.3 C 0 km/h
Sensor: Nr:Datum:Temp:Abs-Feuchte:Windchill:Wind:
Aussen-T/F 276 24-10-2021 22:55:00 4.3 C 6.1 g/m*3 4.3 C 0 km/h
277 24-10-2021 23:00:00 4.2 C 6.06 g/m*3 4.2 C 0 km/h
278 24-10-2021 23:05:00 4.1 C 6.02 g/m*3 4.1 C 0 km/h
279 24-10-2021 23:10:00 4 C 5.98 g/m*3 4 C 0 km/h
280 24-10-2021 23:15:00 3.9 C 5.94 g/m*3 3.9 C 0 km/h
281 24-10-2021 23:20:00 3.9 C 5.94 g/m*3 3.9 C 0 km/h
282 24-10-2021 23:25:00 3.9 C 6 g/m*3 3.9 C 0 km/h
283 24-10-2021 23:30:00 3.9 C 6 g/m*3 3.9 C 0 km/h
284 24-10-2021 23:35:00 3.8 C 5.9 g/m*3 3.8 C 0 km/h
285 24-10-2021 23:40:00 3.7 C 5.86 g/m*3 3.7 C 0 km/h
286 24-10-2021 23:45:00 3.7 C 5.92 g/m*3 3.7 C 0 km/h
287 24-10-2021 23:50:00 3.6 C 5.88 g/m*3 3.6 C 0 km/h
288 24-10-2021 23:55:00 3.6 C 5.88 g/m*3 3.6 C 1.6 km/h
289 25-10-2021 00:00:00 3.6 C 5.88 g/m*3 3.6 C 0 km/h
290 25-10-2021 00:05:00 3.6 C 5.88 g/m*3 3.6 C 0 km/h
291 25-10-2021 00:10:00 3.6 C 5.88 g/m*3 3.6 C 0 km/h
292 25-10-2021 00:15:00 3.4 C 5.8 g/m*3 3.4 C 0 km/h
293 25-10-2021 00:20:00 3.3 C 5.76 g/m*3 3.3 C 0 km/h
294 25-10-2021 00:25:00 3.2 C 5.72 g/m*3 3.2 C 0 km/h
295 25-10-2021 00:30:00 3.2 C 5.72 g/m*3 3.2 C 0 km/h
296 25-10-2021 00:35:00 3.1 C 5.69 g/m*3 3.1 C 0 km/h
297 25-10-2021 00:40:00 3.1 C 5.69 g/m*3 3.1 C 0 km/h
298 25-10-2021 00:45:00 3 C 5.65 g/m*3 3 C 0 km/h
299 25-10-2021 00:50:00 3 C 5.65 g/m*3 3 C 1.6 km/h
300 25-10-2021 00:55:00 3 C 5.65 g/m*3 3 C 0 km/h
Sensor: Nr:Datum:Temp:Abs-Feuchte:Windchill:Wind:
Aussen-T/F 301 25-10-2021 01:00:00 2.9 C 5.61 g/m*3 2.9 C 0 km/h
302 25-10-2021 01:05:00 2.9 C 5.61 g/m*3 2.9 C 0 km/h
303 25-10-2021 01:10:00 2.9 C 5.61 g/m*3 2.9 C 0 km/h
304 25-10-2021 01:15:00 2.9 C 5.61 g/m*3 2.9 C 0 km/h
305 25-10-2021 01:20:00 2.9 C 5.61 g/m*3 2.9 C 0 km/h
306 25-10-2021 01:25:00 2.9 C 5.67 g/m*3 2.9 C 3.2 km/h
307 25-10-2021 01:30:00 3.1 C 5.75 g/m*3 3.1 C 0 km/h
308 25-10-2021 01:35:00 3.2 C 5.79 g/m*3 3.2 C 0 km/h
309 25-10-2021 01:40:00 3.2 C 5.79 g/m*3 3.2 C 0 km/h
310 25-10-2021 01:45:00 3.1 C 5.69 g/m*3 3.1 C 0 km/h
311 25-10-2021 01:50:00 2.9 C 5.61 g/m*3 2.9 C 0 km/h
312 25-10-2021 01:55:00 2.8 C 5.57 g/m*3 2.8 C 0 km/h
313 25-10-2021 02:00:00 2.8 C 5.57 g/m*3 2.8 C 0 km/h
314 25-10-2021 02:05:00 2.7 C 5.54 g/m*3 2.7 C 0 km/h
315 25-10-2021 02:10:00 2.6 C 5.5 g/m*3 2.6 C 0 km/h
316 25-10-2021 02:15:00 2.4 C 5.42 g/m*3 2.4 C 0 km/h
317 25-10-2021 02:20:00 2.3 C 5.39 g/m*3 2.3 C 0 km/h
318 25-10-2021 02:25:00 2.2 C 5.35 g/m*3 2.2 C 0 km/h
319 25-10-2021 02:30:00 2.2 C 5.35 g/m*3 2.2 C 0 km/h
320 25-10-2021 02:35:00 2.1 C 5.31 g/m*3 2.1 C 0 km/h
321 25-10-2021 02:40:00 2.1 C 5.31 g/m*3 2.1 C 0 km/h
322 25-10-2021 02:45:00 2 C 5.28 g/m*3 2 C 0 km/h
323 25-10-2021 02:50:00 1.9 C 5.24 g/m*3 1.9 C 0 km/h
324 25-10-2021 02:55:00 1.9 C 5.24 g/m*3 1.9 C 0 km/h
325 25-10-2021 03:00:00 1.9 C 5.3 g/m*3 1.9 C 0 km/h
Sensor: Nr:Datum:Temp:Abs-Feuchte:Windchill:Wind:
Aussen-T/F 326 25-10-2021 03:05:00 1.9 C 5.3 g/m*3 1.9 C 0 km/h
327 25-10-2021 03:10:00 2.1 C 5.37 g/m*3 2.1 C 0 km/h
328 25-10-2021 03:15:00 2.1 C 5.37 g/m*3 2.1 C 0 km/h
329 25-10-2021 03:20:00 2.1 C 5.37 g/m*3 2.1 C 0 km/h
330 25-10-2021 03:25:00 2 C 5.33 g/m*3 2 C 0 km/h
331 25-10-2021 03:30:00 1.9 C 5.3 g/m*3 1.9 C 0 km/h
332 25-10-2021 03:35:00 1.8 C 5.26 g/m*3 1.8 C 0 km/h
333 25-10-2021 03:40:00 1.8 C 5.21 g/m*3 1.8 C 0 km/h
334 25-10-2021 03:45:00 1.7 C 5.17 g/m*3 1.7 C 0 km/h
335 25-10-2021 03:50:00 1.6 C 5.14 g/m*3 1.6 C 0 km/h
336 25-10-2021 03:55:00 1.6 C 5.19 g/m*3 1.6 C 0 km/h
337 25-10-2021 04:00:00 1.5 C 5.16 g/m*3 1.5 C 0 km/h
338 25-10-2021 04:05:00 1.5 C 5.16 g/m*3 1.5 C 0 km/h
339 25-10-2021 04:10:00 1.6 C 5.19 g/m*3 1.6 C 0 km/h
340 25-10-2021 04:15:00 1.7 C 5.23 g/m*3 1.7 C 0 km/h
341 25-10-2021 04:20:00 1.8 C 5.26 g/m*3 1.8 C 0 km/h
342 25-10-2021 04:25:00 1.9 C 5.3 g/m*3 1.9 C 0 km/h
343 25-10-2021 04:30:00 2.2 C 5.41 g/m*3 2.2 C 0 km/h
344 25-10-2021 04:35:00 2.3 C 5.44 g/m*3 2.3 C 0 km/h
345 25-10-2021 04:40:00 2.4 C 5.48 g/m*3 2.4 C 0 km/h
346 25-10-2021 04:45:00 2.4 C 5.48 g/m*3 2.4 C 0 km/h
347 25-10-2021 04:50:00 2.4 C 5.48 g/m*3 2.4 C 0 km/h
348 25-10-2021 04:55:00 2.4 C 5.48 g/m*3 2.4 C 0 km/h
349 25-10-2021 05:00:00 2.4 C 5.48 g/m*3 2.4 C 1.6 km/h
350 25-10-2021 05:05:00 2.5 C 5.52 g/m*3 2.5 C 0 km/h
Sensor: Nr:Datum:Temp:Abs-Feuchte:Windchill:Wind:
Aussen-T/F 351 25-10-2021 05:10:00 2.6 C 5.56 g/m*3 2.6 C 1.6 km/h
352 25-10-2021 05:15:00 2.6 C 5.56 g/m*3 2.6 C 0 km/h
353 25-10-2021 05:20:00 2.6 C 5.56 g/m*3 2.6 C 0 km/h
354 25-10-2021 05:25:00 2.6 C 5.56 g/m*3 2.6 C 0 km/h
355 25-10-2021 05:30:00 2.7 C 5.59 g/m*3 2.7 C 0 km/h
356 25-10-2021 05:35:00 2.7 C 5.59 g/m*3 2.7 C 0 km/h
357 25-10-2021 05:40:00 2.7 C 5.59 g/m*3 2.7 C 0 km/h
358 25-10-2021 05:45:00 2.7 C 5.59 g/m*3 2.7 C 0 km/h
359 25-10-2021 05:50:00 2.7 C 5.59 g/m*3 2.7 C 0 km/h
360 25-10-2021 05:55:00 2.7 C 5.59 g/m*3 2.7 C 0 km/h
361 25-10-2021 06:00:00 2.7 C 5.59 g/m*3 2.7 C 0 km/h
362 25-10-2021 06:05:00 2.7 C 5.59 g/m*3 2.7 C 0 km/h
363 25-10-2021 06:10:00 2.7 C 5.59 g/m*3 2.7 C 0 km/h
364 25-10-2021 06:15:00 2.7 C 5.59 g/m*3 2.7 C 0 km/h
365 25-10-2021 06:20:00 2.7 C 5.59 g/m*3 2.7 C 0 km/h
366 25-10-2021 06:25:00 2.6 C 5.56 g/m*3 2.6 C 0 km/h
367 25-10-2021 06:30:00 2.6 C 5.56 g/m*3 2.6 C 0 km/h
368 25-10-2021 06:35:00 2.6 C 5.56 g/m*3 2.6 C 0 km/h
369 25-10-2021 06:40:00 2.5 C 5.52 g/m*3 2.5 C 0 km/h
370 25-10-2021 06:45:00 2.5 C 5.52 g/m*3 2.5 C 0 km/h
371 25-10-2021 06:50:00 2.5 C 5.52 g/m*3 2.5 C 0 km/h
372 25-10-2021 06:55:00 2.5 C 5.52 g/m*3 2.5 C 0 km/h
373 25-10-2021 07:00:00 2.5 C 5.52 g/m*3 2.5 C 0 km/h
374 25-10-2021 07:05:00 2.5 C 5.52 g/m*3 2.5 C 0 km/h
375 25-10-2021 07:10:00 2.5 C 5.52 g/m*3 2.5 C 1.6 km/h
Sensor: Nr:Datum:Temp:Abs-Feuchte:Windchill:Wind:
Aussen-T/F 376 25-10-2021 07:15:00 2.5 C 5.52 g/m*3 2.5 C 0 km/h
377 25-10-2021 07:20:00 2.5 C 5.52 g/m*3 2.5 C 0 km/h
378 25-10-2021 07:25:00 2.4 C 5.48 g/m*3 2.4 C 0 km/h
379 25-10-2021 07:30:00 2.4 C 5.48 g/m*3 2.4 C 1.6 km/h
380 25-10-2021 07:35:00 2.4 C 5.48 g/m*3 2.4 C 0 km/h
381 25-10-2021 07:40:00 2.4 C 5.48 g/m*3 2.4 C 1.6 km/h
382 25-10-2021 07:45:00 2.4 C 5.48 g/m*3 2.4 C 0 km/h
383 25-10-2021 07:50:00 2.4 C 5.48 g/m*3 2.4 C 3.2 km/h
384 25-10-2021 07:55:00 2.3 C 5.44 g/m*3 2.3 C 0 km/h
385 25-10-2021 08:00:00 2.3 C 5.44 g/m*3 2.3 C 0 km/h
386 25-10-2021 08:05:00 2.3 C 5.44 g/m*3 2.3 C 0 km/h
387 25-10-2021 08:10:00 2.3 C 5.44 g/m*3 2.3 C 0 km/h
388 25-10-2021 08:15:00 2.2 C 5.41 g/m*3 2.2 C 3.2 km/h
389 25-10-2021 08:20:00 2.2 C 5.41 g/m*3 2.2 C 0 km/h
390 25-10-2021 08:25:00 2.2 C 5.41 g/m*3 2.2 C 0 km/h
391 25-10-2021 08:30:00 2.1 C 5.37 g/m*3 2.1 C 0 km/h
392 25-10-2021 08:35:00 2.1 C 5.37 g/m*3 2.1 C 0 km/h
393 25-10-2021 08:40:00 2.1 C 5.37 g/m*3 2.1 C 0 km/h
394 25-10-2021 08:45:00 2.1 C 5.37 g/m*3 2.1 C 1.6 km/h
395 25-10-2021 08:50:00 2.1 C 5.37 g/m*3 2.1 C 0 km/h
396 25-10-2021 08:55:00 2.1 C 5.37 g/m*3 2.1 C 1.6 km/h
397 25-10-2021 09:00:00 2.1 C 5.37 g/m*3 2.1 C 1.6 km/h
398 25-10-2021 09:05:00 2.1 C 5.37 g/m*3 2.1 C 3.2 km/h
399 25-10-2021 09:10:00 2.1 C 5.37 g/m*3 2.1 C 1.6 km/h
400 25-10-2021 09:15:00 2.1 C 5.37 g/m*3 2.1 C 0 km/h
Sensor: Nr:Datum:Temp:Abs-Feuchte:Windchill:Wind:
Aussen-T/F 401 25-10-2021 09:20:00 2.1 C 5.37 g/m*3 2.1 C 0 km/h
402 25-10-2021 09:25:00 2.2 C 5.41 g/m*3 2.2 C 0 km/h
403 25-10-2021 09:30:00 2.2 C 5.46 g/m*3 2.2 C 0 km/h
404 25-10-2021 09:35:00 2.2 C 5.46 g/m*3 2.2 C 0 km/h
405 25-10-2021 09:40:00 2.2 C 5.46 g/m*3 2.2 C 1.6 km/h
406 25-10-2021 09:45:00 2.2 C 5.46 g/m*3 2.2 C 0 km/h
407 25-10-2021 09:50:00 2.3 C 5.5 g/m*3 2.3 C 1.6 km/h
408 25-10-2021 09:55:00 2.3 C 5.5 g/m*3 2.3 C 0 km/h
409 25-10-2021 10:00:00 2.3 C 5.5 g/m*3 2.3 C 0 km/h
410 25-10-2021 10:05:00 2.4 C 5.54 g/m*3 2.4 C 0 km/h
411 25-10-2021 10:10:00 2.4 C 5.54 g/m*3 2.4 C 1.6 km/h
412 25-10-2021 10:15:00 2.6 C 5.61 g/m*3 2.6 C 1.6 km/h
413 25-10-2021 10:20:00 2.7 C 5.65 g/m*3 2.7 C 0 km/h
414 25-10-2021 10:25:00 2.8 C 5.69 g/m*3 2.8 C 0 km/h
415 25-10-2021 10:30:00 2.8 C 5.69 g/m*3 2.8 C 0 km/h
416 25-10-2021 10:35:00 2.9 C 5.73 g/m*3 2.9 C 0 km/h
417 25-10-2021 10:40:00 3.1 C 5.81 g/m*3 3.1 C 0 km/h
418 25-10-2021 10:45:00 3.1 C 5.81 g/m*3 3.1 C 0 km/h
419 25-10-2021 10:50:00 3.2 C 5.85 g/m*3 3.2 C 0 km/h
420 25-10-2021 10:55:00 3.3 C 5.88 g/m*3 3.3 C 1.6 km/h
421 25-10-2021 11:00:00 3.3 C 5.88 g/m*3 3.3 C 1.6 km/h
422 25-10-2021 11:05:00 3.4 C 5.92 g/m*3 3.4 C 0 km/h
423 25-10-2021 11:10:00 3.5 C 5.96 g/m*3 3.5 C 0 km/h
424 25-10-2021 11:15:00 3.6 C 6 g/m*3 3.6 C 0 km/h
425 25-10-2021 11:20:00 3.7 C 6.04 g/m*3 3.7 C 0 km/h
Sensor: Nr:Datum:Temp:Abs-Feuchte:Windchill:Wind:
Aussen-T/F 426 25-10-2021 11:25:00 3.8 C 6.09 g/m*3 3.8 C 0 km/h
427 25-10-2021 11:30:00 3.8 C 6.09 g/m*3 3.8 C 1.6 km/h
428 25-10-2021 11:35:00 4 C 6.17 g/m*3 4 C 0 km/h
429 25-10-2021 11:40:00 4.2 C 6.25 g/m*3 4.2 C 0 km/h
430 25-10-2021 11:45:00 4.3 C 6.29 g/m*3 4.3 C 0 km/h
431 25-10-2021 11:50:00 4.6 C 6.42 g/m*3 4.6 C 0 km/h
432 25-10-2021 11:55:00 4.8 C 6.5 g/m*3 4.8 C 0 km/h
433 25-10-2021 12:00:00 4.9 C 6.55 g/m*3 4.9 C 1.6 km/h
434 25-10-2021 12:05:00 4.9 C 6.55 g/m*3 4.9 C 0 km/h
435 25-10-2021 12:10:00 5.1 C 6.63 g/m*3 5.1 C 0 km/h
436 25-10-2021 12:15:00 5.2 C 6.68 g/m*3 5.2 C 1.6 km/h
437 25-10-2021 12:20:00 5.3 C 6.72 g/m*3 5.3 C 0 km/h
438 25-10-2021 12:25:00 5.3 C 6.72 g/m*3 5.3 C 1.6 km/h
439 25-10-2021 12:30:00 5.3 C 6.72 g/m*3 5.3 C 1.6 km/h
440 25-10-2021 12:35:00 5.3 C 6.72 g/m*3 5.3 C 0 km/h
441 25-10-2021 12:40:00 5.5 C 6.81 g/m*3 5.5 C 0 km/h
442 25-10-2021 12:45:00 5.7 C 6.9 g/m*3 5.7 C 1.6 km/h
443 25-10-2021 12:50:00 5.7 C 6.9 g/m*3 5.7 C 3.2 km/h
444 25-10-2021 12:55:00 5.8 C 6.95 g/m*3 5.8 C 1.6 km/h
445 25-10-2021 13:00:00 5.9 C 6.99 g/m*3 5.9 C 0 km/h
446 25-10-2021 13:05:00 6 C 7.04 g/m*3 6 C 0 km/h
447 25-10-2021 13:10:00 6.2 C 7.13 g/m*3 6.2 C 1.6 km/h
448 25-10-2021 13:15:00 6.3 C 7.25 g/m*3 6.3 C 0 km/h
449 25-10-2021 13:20:00 6.4 C 7.23 g/m*3 6.4 C 1.6 km/h
450 25-10-2021 13:25:00 6.5 C 7.27 g/m*3 6.5 C 0 km/h
Sensor: Nr:Datum:Temp:Abs-Feuchte:Windchill:Wind:
Aussen-T/F 451 25-10-2021 13:30:00 6.6 C 7.4 g/m*3 6.6 C 1.6 km/h
452 25-10-2021 13:35:00 6.8 C 7.42 g/m*3 6.8 C 1.6 km/h
453 25-10-2021 13:40:00 6.9 C 7.47 g/m*3 6.9 C 0 km/h
454 25-10-2021 13:45:00 7 C 7.59 g/m*3 7 C 0 km/h
455 25-10-2021 13:50:00 7.2 C 7.61 g/m*3 7.2 C 0 km/h
456 25-10-2021 13:55:00 7.3 C 7.74 g/m*3 7.3 C 0 km/h
457 25-10-2021 14:00:00 7.6 C 7.81 g/m*3 7.6 C 1.6 km/h
458 25-10-2021 14:05:00 7.7 C 7.95 g/m*3 7.7 C 0 km/h
459 25-10-2021 14:10:00 7.8 C 8 g/m*3 7.8 C 1.6 km/h
460 25-10-2021 14:15:00 7.8 C 7.92 g/m*3 7.8 C 1.6 km/h
461 25-10-2021 14:20:00 8 C 8.1 g/m*3 8 C 0 km/h
462 25-10-2021 14:25:00 8.2 C 8.21 g/m*3 8.2 C 0 km/h
463 25-10-2021 14:30:00 8.3 C 8.26 g/m*3 8.3 C 0 km/h
464 25-10-2021 14:35:00 8.4 C 8.31 g/m*3 8.4 C 0 km/h
465 25-10-2021 14:40:00 8.6 C 8.42 g/m*3 8.6 C 1.6 km/h
466 25-10-2021 14:45:00 8.8 C 8.53 g/m*3 8.8 C 0 km/h
467 25-10-2021 14:50:00 8.9 C 8.58 g/m*3 8.9 C 0 km/h
468 25-10-2021 14:55:00 9.2 C 8.75 g/m*3 9.2 C 0 km/h
469 25-10-2021 15:00:00 9.5 C 8.92 g/m*3 9.5 C 0 km/h
470 25-10-2021 15:05:00 9.7 C 9.03 g/m*3 9.7 C 0 km/h
471 25-10-2021 15:10:00 9.9 C 9.15 g/m*3 9.9 C 0 km/h
472 25-10-2021 15:15:00 10.1 C 9.27 g/m*3 10.1 C 0 km/h
473 25-10-2021 15:20:00 10.2 C 9.33 g/m*3 10.2 C 0 km/h
474 25-10-2021 15:25:00 10.2 C 9.33 g/m*3 10.2 C 0 km/h
475 25-10-2021 15:30:00 10.2 C 9.33 g/m*3 10.2 C 0 km/h
Sensor: Nr:Datum:Temp:Abs-Feuchte:Windchill:Wind:
Aussen-T/F 476 25-10-2021 15:35:00 10.3 C 9.39 g/m*3 10.3 C 0 km/h
477 25-10-2021 15:40:00 10.3 C 9.39 g/m*3 10.3 C 0 km/h
478 25-10-2021 15:45:00 10.4 C 9.44 g/m*3 10.4 C 0 km/h
479 25-10-2021 15:50:00 10.5 C 9.5 g/m*3 10.5 C 0 km/h
480 25-10-2021 15:55:00 10.6 C 9.57 g/m*3 10.6 C 1.6 km/h
481 25-10-2021 16:00:00 10.7 C 9.63 g/m*3 10.7 C 0 km/h
482 25-10-2021 16:05:00 10.8 C 9.59 g/m*3 10.8 C 0 km/h
483 25-10-2021 16:10:00 10.9 C 9.75 g/m*3 10.9 C 1.6 km/h
484 25-10-2021 16:15:00 11 C 9.71 g/m*3 11 C 0 km/h
485 25-10-2021 16:20:00 11 C 9.71 g/m*3 11 C 0 km/h
486 25-10-2021 16:25:00 10.9 C 9.65 g/m*3 10.9 C 0 km/h
487 25-10-2021 16:30:00 10.9 C 9.55 g/m*3 10.9 C 0 km/h
488 25-10-2021 16:35:00 10.9 C 9.55 g/m*3 10.9 C 0 km/h
489 25-10-2021 16:40:00 11.1 C 9.67 g/m*3 11.1 C 0 km/h
490 25-10-2021 16:45:00 11.1 C 9.67 g/m*3 11.1 C 0 km/h
491 25-10-2021 16:50:00 11.1 C 9.57 g/m*3 11.1 C 0 km/h
492 25-10-2021 16:55:00 11.1 C 9.57 g/m*3 11.1 C 0 km/h
493 25-10-2021 17:00:00 11.2 C 9.63 g/m*3 11.2 C 0 km/h
494 25-10-2021 17:05:00 11.3 C 9.79 g/m*3 11.3 C 0 km/h
495 25-10-2021 17:10:00 11.4 C 9.75 g/m*3 11.4 C 0 km/h
496 25-10-2021 17:15:00 11.6 C 9.98 g/m*3 11.6 C 0 km/h
497 25-10-2021 17:20:00 11.7 C 9.94 g/m*3 11.7 C 0 km/h
498 25-10-2021 17:25:00 11.8 C 10 g/m*3 11.8 C 0 km/h
499 25-10-2021 17:30:00 11.8 C 10 g/m*3 11.8 C 0 km/h
500 25-10-2021 17:35:00 11.7 C 9.83 g/m*3 11.7 C 0 km/h
Sensor: Nr:Datum:Temp:Abs-Feuchte:Windchill:Wind:
Aussen-T/F 501 25-10-2021 17:40:00 11.6 C 9.77 g/m*3 11.6 C 0 km/h
502 25-10-2021 17:45:00 11.4 C 9.55 g/m*3 11.4 C 0 km/h
503 25-10-2021 17:50:00 11.2 C 9.43 g/m*3 11.2 C 4.8 km/h
504 25-10-2021 17:55:00 11 C 9.31 g/m*3 11 C 4.8 km/h
505 25-10-2021 18:00:00 10.8 C 9.19 g/m*3 10.8 C 3.2 km/h
506 25-10-2021 18:05:00 10.7 C 9.13 g/m*3 10.7 C 0 km/h
507 25-10-2021 18:10:00 10.5 C 9.02 g/m*3 10.5 C 3.2 km/h
508 25-10-2021 18:15:00 10.3 C 8.91 g/m*3 10.3 C 3.2 km/h
509 25-10-2021 18:20:00 10.2 C 8.95 g/m*3 10.2 C 4.8 km/h
510 25-10-2021 18:25:00 10.1 C 8.89 g/m*3 10.1 C 4.8 km/h
511 25-10-2021 18:30:00 10.1 C 8.89 g/m*3 10.1 C 4.8 km/h
512 25-10-2021 18:35:00 9.9 C 8.78 g/m*3 9.25 C 6.4 km/h
513 25-10-2021 18:40:00 9.9 C 8.87 g/m*3 9.9 C 3.2 km/h
514 25-10-2021 18:45:00 9.9 C 8.87 g/m*3 9.9 C 1.6 km/h
515 25-10-2021 18:50:00 9.9 C 8.87 g/m*3 9.9 C 0 km/h
516 25-10-2021 18:55:00 10 C 8.93 g/m*3 10 C 0 km/h
517 25-10-2021 19:00:00 10.1 C 8.98 g/m*3 10.1 C 0 km/h
518 25-10-2021 19:05:00 10.1 C 8.98 g/m*3 10.1 C 1.6 km/h
519 25-10-2021 19:10:00 10.1 C 9.08 g/m*3 10.1 C 0 km/h
520 25-10-2021 19:15:00 10.2 C 9.14 g/m*3 10.2 C 0 km/h
521 25-10-2021 19:20:00 10.2 C 9.14 g/m*3 10.2 C 0 km/h
522 25-10-2021 19:25:00 10.2 C 9.14 g/m*3 10.2 C 0 km/h
523 25-10-2021 19:30:00 10.3 C 9.19 g/m*3 10.3 C 0 km/h
524 25-10-2021 19:35:00 10.3 C 9.19 g/m*3 10.3 C 0 km/h
525 25-10-2021 19:40:00 10.3 C 9.19 g/m*3 10.3 C 0 km/h
Sensor: Nr:Datum:Temp:Abs-Feuchte:Windchill:Wind:
Aussen-T/F 526 25-10-2021 19:45:00 10.3 C 9.19 g/m*3 10.3 C 0 km/h
527 25-10-2021 19:50:00 10.3 C 9.19 g/m*3 10.3 C 0 km/h
528 25-10-2021 19:55:00 10.3 C 9.19 g/m*3 10.3 C 0 km/h
529 25-10-2021 20:00:00 10.3 C 9.19 g/m*3 10.3 C 0 km/h
530 25-10-2021 20:05:00 10.4 C 9.25 g/m*3 10.4 C 0 km/h
531 25-10-2021 20:10:00 10.4 C 9.25 g/m*3 10.4 C 0 km/h
532 25-10-2021 20:15:00 10.4 C 9.25 g/m*3 10.4 C 0 km/h
533 25-10-2021 20:20:00 10.4 C 9.25 g/m*3 10.4 C 0 km/h
534 25-10-2021 20:25:00 10.4 C 9.25 g/m*3 10.4 C 0 km/h
535 25-10-2021 20:30:00 10.3 C 9.19 g/m*3 10.3 C 0 km/h
536 25-10-2021 20:35:00 10.3 C 9.19 g/m*3 10.3 C 0 km/h
537 25-10-2021 20:40:00 10.3 C 9.19 g/m*3 10.3 C 0 km/h
538 25-10-2021 20:45:00 10.3 C 9.19 g/m*3 10.3 C 1.6 km/h
539 25-10-2021 20:50:00 10.3 C 9.19 g/m*3 10.3 C 1.6 km/h
540 25-10-2021 20:55:00 10.3 C 9.19 g/m*3 10.3 C 0 km/h
541 25-10-2021 21:00:00 10.3 C 9.19 g/m*3 10.3 C 0 km/h
542 25-10-2021 21:05:00 10.3 C 9.19 g/m*3 10.3 C 3.2 km/h
543 25-10-2021 21:10:00 10.3 C 9.19 g/m*3 10.3 C 0 km/h
544 25-10-2021 21:15:00 10.4 C 9.25 g/m*3 9.83 C 6.4 km/h
545 25-10-2021 21:20:00 10.6 C 9.37 g/m*3 9.14 C 11.3 km/h
546 25-10-2021 21:25:00 10.7 C 9.43 g/m*3 9.04 C 12.9 km/h
547 25-10-2021 21:30:00 10.7 C 9.43 g/m*3 9.04 C 12.9 km/h
548 25-10-2021 21:35:00 10.8 C 9.49 g/m*3 9.64 C 9.7 km/h
549 25-10-2021 21:40:00 10.8 C 9.49 g/m*3 9.93 C 8.1 km/h
550 25-10-2021 21:45:00 10.8 C 9.49 g/m*3 9.38 C 11.3 km/h
Sensor: Nr:Datum:Temp:Abs-Feuchte:Windchill:Wind:
Aussen-T/F 551 25-10-2021 21:50:00 10.8 C 9.49 g/m*3 9.16 C 12.9 km/h
552 25-10-2021 21:55:00 10.8 C 9.49 g/m*3 9.38 C 11.3 km/h
553 25-10-2021 22:00:00 10.8 C 9.39 g/m*3 9.64 C 9.7 km/h
554 25-10-2021 22:05:00 10.8 C 9.39 g/m*3 10.8 C 4.8 km/h
555 25-10-2021 22:10:00 10.8 C 9.39 g/m*3 9.93 C 8.1 km/h
556 25-10-2021 22:15:00 10.8 C 9.39 g/m*3 10.8 C 3.2 km/h
557 25-10-2021 22:20:00 10.7 C 9.33 g/m*3 10.7 C 1.6 km/h
558 25-10-2021 22:25:00 10.7 C 9.33 g/m*3 10.7 C 4.8 km/h
559 25-10-2021 22:30:00 10.6 C 9.27 g/m*3 10.6 C 3.2 km/h
560 25-10-2021 22:35:00 10.4 C 9.16 g/m*3 9.83 C 6.4 km/h
561 25-10-2021 22:40:00 10.4 C 9.16 g/m*3 10.4 C 3.2 km/h
562 25-10-2021 22:45:00 10.4 C 9.16 g/m*3 9.16 C 9.7 km/h
563 25-10-2021 22:50:00 10.4 C 9.16 g/m*3 10.4 C 4.8 km/h
564 25-10-2021 22:55:00 10.5 C 9.21 g/m*3 9.95 C 6.4 km/h
565 25-10-2021 23:00:00 10.4 C 9.16 g/m*3 9.83 C 6.4 km/h
566 25-10-2021 23:05:00 10.4 C 9.16 g/m*3 10.4 C 4.8 km/h
567 25-10-2021 23:10:00 10.3 C 9.1 g/m*3 9.72 C 6.4 km/h
568 25-10-2021 23:15:00 10.3 C 9.1 g/m*3 9.72 C 6.4 km/h
569 25-10-2021 23:20:00 10.3 C 9.1 g/m*3 9.34 C 8.1 km/h
570 25-10-2021 23:25:00 10.3 C 9.1 g/m*3 9.72 C 6.4 km/h
571 25-10-2021 23:30:00 10.3 C 9.1 g/m*3 9.72 C 6.4 km/h
572 25-10-2021 23:35:00 10.3 C 9.1 g/m*3 9.34 C 8.1 km/h
573 25-10-2021 23:40:00 10.2 C 9.04 g/m*3 10.2 C 4.8 km/h
574 25-10-2021 23:45:00 10.2 C 9.04 g/m*3 9.6 C 6.4 km/h
575 25-10-2021 23:50:00 10.2 C 9.04 g/m*3 9.6 C 6.4 km/h
Sensor: Nr:Datum:Temp:Abs-Feuchte:Windchill:Wind:
Aussen-T/F 576 25-10-2021 23:55:00 10.3 C 9.1 g/m*3 9.04 C 9.7 km/h

Legende:
   Min
   Max


Maximal/Minimal-Werte vom 24.10.2021 - 25.10.2021

Sensor Min Max Avg
Temp
(Aussen-T/F)
1.5 °C
24-10-2021  09:05:00
12.7 °C
24-10-2021  16:20:00
5.78 °C
Abs-Feuchte
(Aussen-T/F)
5.14 g/m*3
25-10-2021  03:50:00
10 g/m*3
25-10-2021  17:25:00
6.89 g/m*3
Windchill
(Aussen-T/F)
1.5 C
24-10-2021  09:05:00
12.7 C
24-10-2021  16:20:00
5.71 C

Die Daten stammen von einer Davis Vantage Pro 2 Wetter-Station und werden unter Linux mit der Software wview2wettercgi und aufbereitet. Alle Angaben erfolgen ohne Gewähr für ihre Vollständigkeit oder Richtigkeit.
Kontakt: Rainer Krienke krienke@uni-koblenz.de . Meine Webseiten an der Uni Koblenz oder privat.
Version: $Revision: 0.78 $